Terminal Aerodrome Forecast
Issued by NWS

Current Version | Previous Version | Text Only | Print | Product List | Glossary Off
Versions: 1 2 3 4 5 6 7 8 9 10 11 12 13 14 15 16 17 18 19 20 21

602
FTUS41 KPBZ 161724
TAFHLG
TAF
KHLG 161724Z 1618/1718 27014G24KT P6SM OVC025
     FM170100 29008KT P6SM OVC035
     FM171000 26003KT P6SM BKN060
     FM171600 20003KT P6SM BKN100=

USA.gov is the U.S. government's official web portal to all federal, state and local government web resources and services.